createdAt,value
2023-08-22T00:00:14.368Z,47.01
2023-08-22T00:03:18.596Z,46.54
2023-08-22T00:06:22.384Z,45.91
2023-08-22T00:09:26.906Z,46.42
2023-08-22T00:12:30.335Z,46.62
2023-08-22T00:15:33.485Z,46.12
2023-08-22T00:18:36.754Z,46.19
2023-08-22T00:21:39.814Z,45.84
2023-08-22T00:24:44.323Z,45.82
2023-08-22T00:27:47.404Z,46.26
2023-08-22T00:30:50.507Z,46.19
2023-08-22T00:33:53.613Z,46.89
2023-08-22T00:36:56.736Z,46.61
2023-08-22T00:40:01.432Z,46.87
2023-08-22T00:43:04.897Z,46.26
2023-08-22T00:46:08.235Z,46.79
2023-08-22T00:49:11.899Z,46.44
2023-08-22T00:52:15.880Z,46.23
2023-08-22T00:55:21.259Z,46.29
2023-08-22T00:58:25.143Z,45.83
2023-08-22T01:01:28.835Z,46.37
2023-08-22T01:04:31.872Z,46.59
2023-08-22T01:07:43.933Z,46.83
2023-08-22T01:10:54.370Z,46.62
2023-08-22T01:13:58.990Z,46.53
2023-08-22T01:17:02.818Z,45.88
2023-08-22T01:20:08.897Z,46.40
2023-08-22T01:23:13.346Z,46.58
2023-08-22T01:26:17.484Z,46.35
2023-08-22T01:29:32.206Z,46.31
2023-08-22T01:32:40.741Z,46.55
2023-08-22T01:35:48.527Z,46.25
2023-08-22T01:38:55.593Z,46.85
2023-08-22T01:42:00.370Z,46.61
2023-08-22T01:45:04.032Z,46.38
2023-08-22T01:48:07.765Z,46.32
2023-08-22T01:51:11.044Z,46.47
2023-08-22T01:54:16.139Z,46.58
2023-08-22T01:57:19.243Z,46.37
2023-08-22T02:00:23.222Z,46.86
2023-08-22T02:03:26.406Z,46.33
2023-08-22T02:06:29.521Z,46.26
2023-08-22T02:09:34.092Z,46.80
2023-08-22T02:12:37.151Z,46.91
2023-08-22T02:15:40.390Z,46.89
2023-08-22T02:18:43.605Z,46.54
2023-08-22T02:21:46.743Z,46.84
2023-08-22T02:24:51.232Z,46.94
2023-08-22T02:27:54.333Z,47.00
2023-08-22T02:30:57.600Z,46.43
2023-08-22T02:34:00.718Z,47.44
2023-08-22T02:37:04.137Z,47.33
2023-08-22T02:40:10.601Z,47.10
2023-08-22T02:43:13.734Z,47.06
2023-08-22T02:46:17.223Z,46.41
2023-08-22T02:49:20.190Z,46.44
2023-08-22T02:52:23.272Z,46.18
2023-08-22T02:55:27.886Z,46.08
2023-08-22T02:58:31.966Z,46.77
2023-08-22T03:01:35.124Z,46.33
2023-08-22T03:04:38.873Z,47.15
2023-08-22T03:07:42.231Z,46.94
2023-08-22T03:10:47.088Z,46.55
2023-08-22T03:13:50.209Z,46.32
2023-08-22T03:16:53.800Z,46.44
2023-08-22T03:19:57.019Z,46.33
2023-08-22T03:23:00.682Z,46.33
2023-08-22T03:26:08.182Z,46.60
2023-08-22T03:29:11.245Z,47.62
2023-08-22T03:32:14.290Z,47.31
2023-08-22T03:35:17.275Z,47.53
2023-08-22T03:38:20.641Z,47.79
2023-08-22T03:41:25.568Z,48.24
2023-08-22T03:44:28.621Z,48.43
2023-08-22T03:47:31.712Z,47.80
2023-08-22T03:50:34.869Z,48.00
2023-08-22T03:53:39.276Z,47.19
2023-08-22T03:56:43.703Z,47.23
2023-08-22T03:59:46.753Z,46.57
2023-08-22T04:02:49.874Z,47.51
2023-08-22T04:05:53.137Z,47.72
2023-08-22T04:08:56.276Z,47.97
2023-08-22T04:12:01.310Z,47.94
2023-08-22T04:15:04.784Z,47.04
2023-08-22T04:18:08.415Z,47.21
2023-08-22T04:21:11.577Z,47.27
2023-08-22T04:24:14.641Z,48.30
2023-08-22T04:27:19.870Z,48.41
2023-08-22T04:30:23.411Z,49.11
2023-08-22T04:33:26.546Z,52.01
2023-08-22T04:36:29.587Z,51.04
2023-08-22T04:39:32.653Z,52.44
2023-08-22T04:42:37.129Z,51.59
2023-08-22T04:45:40.204Z,50.79
2023-08-22T04:48:43.225Z,50.10
2023-08-22T04:51:46.295Z,49.36
2023-08-22T04:54:50.609Z,48.71
2023-08-22T04:57:55.113Z,48.93
2023-08-22T05:00:58.319Z,48.53
2023-08-22T05:04:01.358Z,48.79
2023-08-22T05:07:04.458Z,48.61
2023-08-22T05:10:08.238Z,48.32
2023-08-22T05:13:13.128Z,48.56
2023-08-22T05:16:16.292Z,48.51
2023-08-22T05:19:19.509Z,50.53
2023-08-22T05:22:22.577Z,51.39
2023-08-22T05:25:25.736Z,51.86
2023-08-22T05:28:30.260Z,53.64
2023-08-22T05:31:34.775Z,52.76
2023-08-22T05:34:37.878Z,51.84
2023-08-22T05:37:41.244Z,51.20
2023-08-22T05:40:44.808Z,50.54
2023-08-22T05:43:49.206Z,50.67
2023-08-22T05:46:52.213Z,50.32
2023-08-22T05:49:55.309Z,50.07
2023-08-22T05:52:58.349Z,49.75
2023-08-22T05:56:01.464Z,50.33
2023-08-22T05:59:06.006Z,50.27
2023-08-22T06:02:09.069Z,49.74
2023-08-22T06:05:12.115Z,49.42
2023-08-22T06:08:15.423Z,49.23
2023-08-22T06:11:18.438Z,50.37
2023-08-22T06:14:22.918Z,49.41
2023-08-22T06:17:25.994Z,49.07
2023-08-22T06:20:29.076Z,49.28
2023-08-22T06:23:32.164Z,48.80
2023-08-22T06:26:35.276Z,48.38
2023-08-22T06:29:39.948Z,48.12
2023-08-22T06:32:43.093Z,48.17
2023-08-22T06:35:48.502Z,48.35
2023-08-22T06:38:51.698Z,48.01
2023-08-22T06:41:54.761Z,48.04
2023-08-22T06:44:59.264Z,47.21
2023-08-22T06:48:02.481Z,47.53
2023-08-22T06:51:05.570Z,48.28
2023-08-22T06:54:08.660Z,47.87
2023-08-22T06:57:11.766Z,48.32
2023-08-22T07:00:18.291Z,48.08
2023-08-22T07:03:21.388Z,47.97
2023-08-22T07:06:24.643Z,47.36
2023-08-22T07:09:27.868Z,46.64
2023-08-22T07:12:30.954Z,47.21
2023-08-22T07:15:36.131Z,47.31
2023-08-22T07:18:39.352Z,47.61
2023-08-22T07:21:42.371Z,47.93
2023-08-22T07:24:45.474Z,48.33
2023-08-22T07:27:48.510Z,47.50
2023-08-22T07:30:54.936Z,47.19
2023-08-22T07:33:58.020Z,47.68
2023-08-22T07:37:01.208Z,47.16
2023-08-22T07:40:05.910Z,46.87
2023-08-22T07:43:09.301Z,46.38
2023-08-22T07:46:13.729Z,46.44
2023-08-22T07:49:16.876Z,47.15
2023-08-22T07:52:19.905Z,46.86
2023-08-22T07:55:24.828Z,46.45
2023-08-22T07:58:27.992Z,46.73
2023-08-22T08:01:34.247Z,47.28
2023-08-22T08:04:37.231Z,46.62
2023-08-22T08:07:40.838Z,46.64
2023-08-22T08:10:43.876Z,45.89
2023-08-22T08:13:46.970Z,45.96
2023-08-22T08:16:51.432Z,45.82
2023-08-22T08:19:54.551Z,45.73
2023-08-22T08:22:57.704Z,45.51
2023-08-22T08:26:00.789Z,46.11
2023-08-22T08:29:03.919Z,46.33
2023-08-22T08:32:08.449Z,46.22
2023-08-22T08:35:11.823Z,46.12
2023-08-22T08:38:15.435Z,46.37
2023-08-22T08:41:21.898Z,46.22
2023-08-22T08:44:27.510Z,45.86
2023-08-22T08:47:32.782Z,46.22
2023-08-22T08:50:39.166Z,45.16
2023-08-22T08:53:43.644Z,44.93
2023-08-22T08:56:46.678Z,45.67
2023-08-22T08:59:49.942Z,45.50
2023-08-22T09:02:54.818Z,45.67
2023-08-22T09:05:58.010Z,45.29
2023-08-22T09:09:06.895Z,45.18
2023-08-22T09:12:11.694Z,45.11
2023-08-22T09:15:20.332Z,45.00
2023-08-22T09:18:24.876Z,44.17
2023-08-22T09:21:27.995Z,43.43
2023-08-22T09:24:33.461Z,43.56
2023-08-22T09:27:37.523Z,43.14
2023-08-22T09:30:48.745Z,43.27
2023-08-22T09:33:53.452Z,43.36
2023-08-22T09:36:56.803Z,42.96
2023-08-22T09:39:59.946Z,42.46
2023-08-22T09:43:03.584Z,42.63
2023-08-22T09:46:07.084Z,42.53
2023-08-22T09:49:16.389Z,41.67
2023-08-22T09:52:20.112Z,41.72
2023-08-22T09:55:23.568Z,42.57
2023-08-22T09:58:30.876Z,42.45
2023-08-22T10:01:35.700Z,40.84
2023-08-22T10:04:41.433Z,39.44
2023-08-22T10:07:44.876Z,40.92
2023-08-22T10:10:50.123Z,40.83
2023-08-22T10:13:54.649Z,40.11
2023-08-22T10:16:58.430Z,40.27
2023-08-22T10:20:07.317Z,40.16
2023-08-22T10:23:10.665Z,40.21
2023-08-22T10:26:15.752Z,38.89
2023-08-22T10:29:20.225Z,39.55
2023-08-22T10:32:25.986Z,39.19
2023-08-22T10:35:30.389Z,40.25
2023-08-22T10:38:57.041Z,40.25
2023-08-22T10:42:03.112Z,40.80
2023-08-22T10:45:18.224Z,40.29
2023-08-22T10:48:23.387Z,39.16
2023-08-22T10:51:45.391Z,40.39
2023-08-22T10:55:07.362Z,39.74
2023-08-22T10:58:44.339Z,39.79
2023-08-22T11:01:49.271Z,40.44
2023-08-22T11:04:54.266Z,39.80
2023-08-22T11:07:58.753Z,39.93
2023-08-22T11:11:03.291Z,40.53
2023-08-22T11:14:06.338Z,40.88
2023-08-22T11:17:09.494Z,40.43
2023-08-22T11:20:14.036Z,40.70
2023-08-22T11:23:18.597Z,40.76
2023-08-22T11:26:24.148Z,41.21
2023-08-22T11:29:27.492Z,41.44
2023-08-22T11:32:32.266Z,39.62
2023-08-22T11:35:35.374Z,40.54
2023-08-22T11:38:39.892Z,40.49
2023-08-22T11:41:43.144Z,40.71
2023-08-22T11:45:00.282Z,39.20
2023-08-22T11:48:03.524Z,39.19
2023-08-22T11:51:06.873Z,39.53
2023-08-22T11:54:11.417Z,39.80
2023-08-22T11:57:14.469Z,39.64
2023-08-22T12:00:17.867Z,40.05
2023-08-22T12:03:21.005Z,40.47
2023-08-22T12:06:24.179Z,40.62
2023-08-22T12:09:28.724Z,40.57
2023-08-22T12:12:32.032Z,40.63
2023-08-22T12:15:35.616Z,40.59
2023-08-22T12:18:40.564Z,41.12
2023-08-22T12:21:43.597Z,40.87
2023-08-22T12:24:50.931Z,40.52
2023-08-22T12:27:54.236Z,40.41
2023-08-22T12:30:57.530Z,40.28
2023-08-22T12:34:01.604Z,40.37
2023-08-22T12:37:04.684Z,40.68
2023-08-22T12:40:11.881Z,40.33
2023-08-22T12:43:16.019Z,41.56
2023-08-22T12:46:19.205Z,41.81
2023-08-22T12:49:22.426Z,42.12
2023-08-22T12:52:25.506Z,42.67
2023-08-22T12:55:29.966Z,42.38
2023-08-22T12:58:34.207Z,42.52
2023-08-22T13:01:37.404Z,43.22
2023-08-22T13:04:40.601Z,42.87
2023-08-22T13:07:45.216Z,43.17
2023-08-22T13:10:51.268Z,43.07
2023-08-22T13:13:54.390Z,43.43
2023-08-22T13:16:57.484Z,43.91
2023-08-22T13:20:01.337Z,43.70
2023-08-22T13:23:05.914Z,43.77
2023-08-22T13:26:11.042Z,44.15
2023-08-22T13:29:14.412Z,44.34
2023-08-22T13:32:17.688Z,44.30
2023-08-22T13:35:20.726Z,44.38
2023-08-22T13:38:23.779Z,43.17
2023-08-22T13:41:28.449Z,42.88
2023-08-22T13:44:31.546Z,43.45
2023-08-22T13:47:35.096Z,43.43
2023-08-22T13:50:38.316Z,43.86
2023-08-22T13:53:41.560Z,43.81
2023-08-22T13:56:46.064Z,43.42
2023-08-22T13:59:49.399Z,42.37
2023-08-22T14:02:52.571Z,40.78
2023-08-22T14:05:55.758Z,40.04
2023-08-22T14:09:00.825Z,40.52
2023-08-22T14:12:05.692Z,41.57
2023-08-22T14:15:09.836Z,42.23
2023-08-22T14:18:13.559Z,42.13
2023-08-22T14:21:16.738Z,43.59
2023-08-22T14:24:19.866Z,44.44
2023-08-22T14:27:26.595Z,44.87
2023-08-22T14:30:31.503Z,46.62
2023-08-22T14:33:34.567Z,46.87
2023-08-22T14:36:37.621Z,47.35
2023-08-22T14:39:40.710Z,46.69
2023-08-22T14:42:45.114Z,50.48
2023-08-22T14:45:48.147Z,49.07
2023-08-22T14:48:51.683Z,49.55
2023-08-22T14:51:54.778Z,48.91
2023-08-22T14:54:58.266Z,49.49
2023-08-22T14:58:04.086Z,49.63
2023-08-22T15:01:07.585Z,48.95
2023-08-22T15:04:11.102Z,48.13
2023-08-22T15:07:14.282Z,48.23
2023-08-22T15:10:18.039Z,48.06
2023-08-22T15:13:22.579Z,48.07
2023-08-22T15:16:25.796Z,47.85
2023-08-22T15:19:28.864Z,47.03
2023-08-22T15:22:32.828Z,46.96
2023-08-22T15:25:36.409Z,46.81
2023-08-22T15:28:41.466Z,46.68
2023-08-22T15:31:45.137Z,46.65
2023-08-22T15:34:48.416Z,47.17
2023-08-22T15:37:51.484Z,46.43
2023-08-22T15:40:54.554Z,46.74
2023-08-22T15:43:58.978Z,46.61
2023-08-22T15:47:02.111Z,47.06
2023-08-22T15:50:05.396Z,46.67
2023-08-22T15:53:08.419Z,46.78
2023-08-22T15:56:11.517Z,46.75
2023-08-22T15:59:16.026Z,46.85
2023-08-22T16:02:19.133Z,46.43
2023-08-22T16:05:22.251Z,46.87
2023-08-22T16:08:25.346Z,46.33
2023-08-22T16:11:28.452Z,46.44
2023-08-22T16:14:33.016Z,46.56
2023-08-22T16:17:36.108Z,46.49
2023-08-22T16:20:39.189Z,46.34
2023-08-22T16:23:43.063Z,46.65
2023-08-22T16:26:48.638Z,46.70
2023-08-22T16:29:55.498Z,46.12
2023-08-22T16:32:58.541Z,45.97
2023-08-22T16:36:01.712Z,46.78
2023-08-22T16:39:06.152Z,46.68
2023-08-22T16:42:09.311Z,46.81
2023-08-22T16:45:13.905Z,46.20
2023-08-22T16:48:17.651Z,46.48
2023-08-22T16:51:21.033Z,46.48
2023-08-22T16:54:24.138Z,46.14
2023-08-22T16:57:27.310Z,46.47
2023-08-22T17:00:32.608Z,46.52
2023-08-22T17:03:35.969Z,46.75
2023-08-22T17:06:40.462Z,46.07
2023-08-22T17:09:44.166Z,46.65
2023-08-22T17:12:47.280Z,46.07
2023-08-22T17:16:00.127Z,46.46
2023-08-22T17:19:03.301Z,46.35
2023-08-22T17:22:06.457Z,46.60
2023-08-22T17:25:10.779Z,46.80
2023-08-22T17:28:13.862Z,46.77
2023-08-22T17:31:18.445Z,46.41
2023-08-22T17:34:21.620Z,46.11
2023-08-22T17:37:24.826Z,46.68
2023-08-22T17:40:27.853Z,46.15
2023-08-22T17:43:31.254Z,46.15
2023-08-22T17:46:35.817Z,46.18
2023-08-22T17:49:38.918Z,46.29
2023-08-22T17:52:41.993Z,46.16
2023-08-22T17:55:45.320Z,46.51
2023-08-22T17:58:48.359Z,45.98
2023-08-22T18:01:53.296Z,46.03
2023-08-22T18:04:56.512Z,46.69
2023-08-22T18:07:59.733Z,46.70
2023-08-22T18:11:02.937Z,46.81
2023-08-22T18:14:08.076Z,46.75
2023-08-22T18:17:12.620Z,46.24
2023-08-22T18:20:15.885Z,46.40
2023-08-22T18:23:19.020Z,46.54
2023-08-22T18:26:22.069Z,46.35
2023-08-22T18:29:25.130Z,46.88
2023-08-22T18:32:30.519Z,47.13
2023-08-22T18:35:33.643Z,47.36
2023-08-22T18:38:36.673Z,47.40
2023-08-22T18:41:39.782Z,46.64
2023-08-22T18:44:42.842Z,46.38
2023-08-22T18:47:47.412Z,46.83
2023-08-22T18:50:58.942Z,47.26
2023-08-22T18:54:02.166Z,46.69
2023-08-22T18:57:05.496Z,46.62
2023-08-22T19:00:10.345Z,46.40
2023-08-22T19:03:14.957Z,46.75
2023-08-22T19:06:18.290Z,46.18
2023-08-22T19:09:21.326Z,46.63
2023-08-22T19:12:24.843Z,46.92
2023-08-22T19:15:27.961Z,46.85
2023-08-22T19:22:02.383Z,46.37
2023-08-22T19:25:07.335Z,46.06
2023-08-22T19:28:10.369Z,46.48
2023-08-22T19:31:13.552Z,46.66
2023-08-22T19:34:16.774Z,46.65
2023-08-22T19:37:21.266Z,46.21
2023-08-22T19:40:24.326Z,46.15
2023-08-22T19:43:27.565Z,45.88
2023-08-22T19:46:30.645Z,45.17
2023-08-22T19:49:33.791Z,45.44
2023-08-22T19:52:39.243Z,45.92
2023-08-22T19:55:42.415Z,45.56
2023-08-22T19:58:45.573Z,46.19
2023-08-22T20:01:48.866Z,46.06
2023-08-22T20:04:52.411Z,45.80
2023-08-22T20:07:56.947Z,46.60
2023-08-22T20:11:00.046Z,46.36
2023-08-22T20:14:03.152Z,46.44
2023-08-22T20:17:06.346Z,46.03
2023-08-22T20:20:10.451Z,46.80
2023-08-22T20:23:14.917Z,46.35
2023-08-22T20:26:18.118Z,46.56
2023-08-22T20:29:21.283Z,46.76
2023-08-22T20:32:24.400Z,46.77
2023-08-22T20:35:27.629Z,47.10
2023-08-22T20:38:32.077Z,47.07
2023-08-22T20:41:36.959Z,47.25
2023-08-22T20:44:40.037Z,47.34
2023-08-22T20:47:43.843Z,47.23
2023-08-22T20:50:46.990Z,47.06
2023-08-22T20:53:51.469Z,46.95
2023-08-22T20:56:54.533Z,46.46
2023-08-22T20:59:58.489Z,46.75
2023-08-22T21:03:02.067Z,46.76
2023-08-22T21:06:09.812Z,46.56
2023-08-22T21:09:14.300Z,46.09
2023-08-22T21:12:17.425Z,46.31
2023-08-22T21:15:20.670Z,45.69
2023-08-22T21:18:23.893Z,46.26
2023-08-22T21:21:27.075Z,45.85
2023-08-22T21:24:43.458Z,46.06
2023-08-22T21:27:46.779Z,45.96
2023-08-22T21:30:52.187Z,45.46
2023-08-22T21:33:55.555Z,45.90
2023-08-22T21:36:58.675Z,45.38
2023-08-22T21:40:03.104Z,45.81
2023-08-22T21:43:06.546Z,44.98
2023-08-22T21:46:10.013Z,45.15
2023-08-22T21:49:13.103Z,45.02
2023-08-22T21:52:17.226Z,44.85
2023-08-22T21:55:21.682Z,45.43
2023-08-22T21:58:24.823Z,45.33
2023-08-22T22:01:27.946Z,45.27
2023-08-22T22:04:31.111Z,44.81
2023-08-22T22:07:34.423Z,44.51
2023-08-22T22:10:38.848Z,44.94
2023-08-22T22:13:41.980Z,45.11
2023-08-22T22:16:46.171Z,45.06
2023-08-22T22:19:49.411Z,44.98
2023-08-22T22:22:52.468Z,44.81
2023-08-22T22:26:03.515Z,44.84
2023-08-22T22:29:06.715Z,45.11
2023-08-22T22:32:09.929Z,45.01
2023-08-22T22:35:13.139Z,44.94
2023-08-22T22:38:16.210Z,45.10
2023-08-22T22:41:20.645Z,44.58
2023-08-22T22:44:23.786Z,44.68
2023-08-22T22:47:27.244Z,44.70
2023-08-22T22:50:30.321Z,45.16
2023-08-22T22:53:33.438Z,44.35
2023-08-22T22:56:37.911Z,44.58
2023-08-22T22:59:40.946Z,45.07
2023-08-22T23:02:44.090Z,44.87
2023-08-22T23:05:47.240Z,44.75
2023-08-22T23:08:50.252Z,44.59
2023-08-22T23:12:04.426Z,44.82
2023-08-22T23:15:16.394Z,45.15
2023-08-22T23:18:19.637Z,44.30
2023-08-22T23:21:22.772Z,45.01
2023-08-22T23:24:26.292Z,45.25
2023-08-22T23:27:32.832Z,45.00
2023-08-22T23:30:36.024Z,44.75
2023-08-22T23:33:39.127Z,45.54
2023-08-22T23:36:42.332Z,45.16
2023-08-22T23:39:45.431Z,45.65
2023-08-22T23:42:50.363Z,46.08
2023-08-22T23:45:53.367Z,46.77
2023-08-22T23:48:56.374Z,46.48
2023-08-22T23:51:59.469Z,47.35
2023-08-22T23:55:02.536Z,47.69
2023-08-22T23:58:07.037Z,48.54
